createdAt,value
2023-05-19T00:03:59.164Z,2.00
2023-05-19T00:09:07.712Z,2.10
2023-05-19T00:14:10.753Z,1.80
2023-05-19T00:19:13.624Z,1.80
2023-05-19T00:24:16.517Z,2.10
2023-05-19T00:29:19.376Z,1.50
2023-05-19T00:34:22.264Z,1.80
2023-05-19T00:39:25.098Z,2.10
2023-05-19T00:44:27.976Z,2.30
2023-05-19T00:49:30.929Z,2.00
2023-05-19T00:54:35.001Z,2.10
2023-05-19T00:59:37.971Z,9.90
2023-05-19T01:04:41.943Z,6.70
2023-05-19T01:09:44.819Z,4.80
2023-05-19T01:14:47.920Z,3.50
2023-05-19T01:19:56.781Z,2.40
2023-05-19T01:25:20.136Z,1.70
2023-05-19T01:30:40.987Z,1.80
2023-05-19T01:35:45.838Z,2.00
2023-05-19T01:40:52.257Z,1.90
2023-05-19T01:45:55.935Z,1.60
2023-05-19T01:50:59.799Z,1.70
2023-05-19T01:56:02.895Z,1.30
2023-05-19T02:01:32.218Z,1.60
2023-05-19T02:06:49.892Z,1.60
2023-05-19T02:11:59.535Z,1.50
2023-05-19T02:17:04.957Z,1.80
2023-05-19T02:22:07.830Z,1.60
2023-05-19T02:27:10.683Z,1.90
2023-05-19T02:32:13.684Z,1.50
2023-05-19T02:37:17.011Z,1.80
2023-05-19T02:42:20.000Z,1.50
2023-05-19T02:47:23.107Z,1.60
2023-05-19T02:52:26.096Z,1.70
2023-05-19T02:57:30.234Z,2.00
2023-05-19T03:02:34.489Z,1.80
2023-05-19T03:07:37.841Z,1.80
2023-05-19T03:12:40.660Z,1.90
2023-05-19T03:17:43.653Z,1.80
2023-05-19T03:22:46.501Z,2.50
2023-05-19T03:27:49.367Z,2.20
2023-05-19T03:32:52.292Z,1.90
2023-05-19T03:37:55.358Z,1.50
2023-05-19T03:42:58.216Z,1.90
2023-05-19T03:48:01.085Z,1.70
2023-05-19T03:53:03.969Z,1.80
2023-05-19T03:58:06.900Z,1.40
2023-05-19T04:03:09.873Z,1.70
2023-05-19T04:08:12.809Z,1.70
2023-05-19T04:13:15.600Z,2.10
2023-05-19T04:18:18.518Z,1.80
2023-05-19T04:23:21.311Z,2.00
2023-05-19T04:28:26.505Z,1.90
2023-05-19T04:33:29.465Z,2.20
2023-05-19T04:38:34.199Z,1.60
2023-05-19T04:43:41.701Z,1.70
2023-05-19T04:48:45.358Z,1.50
2023-05-19T04:53:48.344Z,1.50
2023-05-19T04:58:51.235Z,1.80
2023-05-19T05:03:55.440Z,1.50
2023-05-19T05:09:00.069Z,1.90
2023-05-19T05:14:03.161Z,1.70
2023-05-19T05:19:06.304Z,1.60
2023-05-19T05:24:10.288Z,1.70
2023-05-19T05:29:14.694Z,1.70
2023-05-19T05:34:17.933Z,1.90
2023-05-19T05:39:21.075Z,1.50
2023-05-19T05:44:24.008Z,1.50
2023-05-19T05:49:27.118Z,1.70
2023-05-19T05:54:30.680Z,1.70
2023-05-19T05:59:34.212Z,2.00
2023-05-19T06:04:44.051Z,1.60
2023-05-19T06:09:48.141Z,1.70
2023-05-19T06:14:52.220Z,1.70
2023-05-19T06:19:55.071Z,1.90
2023-05-19T06:24:58.009Z,1.60
2023-05-19T06:30:01.018Z,1.80
2023-05-19T06:35:04.404Z,1.70
2023-05-19T06:40:08.660Z,1.40
2023-05-19T06:45:11.797Z,1.70
2023-05-19T06:50:18.525Z,1.90
2023-05-19T06:55:21.874Z,1.60
2023-05-19T07:00:25.241Z,1.90
2023-05-19T07:05:28.161Z,1.90
2023-05-19T07:10:34.325Z,1.70
2023-05-19T07:15:45.682Z,1.90
2023-05-19T07:20:50.494Z,2.00
2023-05-19T07:25:57.071Z,2.10
2023-05-19T07:31:00.933Z,2.00
2023-05-19T07:36:09.127Z,1.90
2023-05-19T07:41:55.038Z,1.80
2023-05-19T07:47:01.579Z,2.10
2023-05-19T07:52:05.348Z,1.70
2023-05-19T07:57:08.349Z,1.60
2023-05-19T08:02:12.000Z,1.60
2023-05-19T08:07:16.016Z,1.40
2023-05-19T08:12:19.008Z,1.70
2023-05-19T08:17:23.855Z,1.90
2023-05-19T08:22:39.635Z,1.70
2023-05-19T08:28:16.097Z,1.30
2023-05-19T08:33:21.786Z,1.40
2023-05-19T08:38:26.643Z,1.30
2023-05-19T08:43:29.742Z,1.50
2023-05-19T08:48:35.206Z,1.40
2023-05-19T08:53:44.073Z,1.40
2023-05-19T08:58:49.951Z,1.70
2023-05-19T09:03:54.336Z,2.00
2023-05-19T09:08:59.218Z,1.20
2023-05-19T09:14:02.902Z,1.40
2023-05-19T09:19:12.465Z,1.30
2023-05-19T09:24:15.718Z,1.20
2023-05-19T09:29:19.333Z,1.00
2023-05-19T09:34:24.837Z,1.20
2023-05-19T09:39:35.440Z,1.70
2023-05-19T09:44:39.065Z,2.20
2023-05-19T09:49:52.495Z,1.20
2023-05-19T09:54:57.700Z,1.30
2023-05-19T10:00:02.262Z,1.40
2023-05-19T10:05:13.407Z,1.20
2023-05-19T10:10:16.358Z,1.20
2023-05-19T10:15:22.171Z,1.30
2023-05-19T10:20:28.971Z,1.60
2023-05-19T10:25:35.290Z,1.30
2023-05-19T10:30:46.536Z,1.40
2023-05-19T10:36:10.193Z,1.30
2023-05-19T10:41:16.748Z,1.50
2023-05-19T10:46:24.364Z,1.60
2023-05-19T10:51:37.734Z,1.50
2023-05-19T10:56:47.569Z,1.40
2023-05-19T11:01:51.091Z,1.90
2023-05-19T11:12:04.198Z,1.50
2023-05-19T11:17:14.848Z,1.40
2023-05-19T11:22:19.302Z,1.50
2023-05-19T11:27:37.833Z,1.80
2023-05-19T11:32:46.584Z,1.50
2023-05-19T11:37:54.797Z,1.50
2023-05-19T11:42:58.952Z,1.70
2023-05-19T11:48:05.599Z,1.20
2023-05-19T11:53:14.249Z,1.50
2023-05-19T11:58:26.546Z,1.90
2023-05-19T12:03:29.999Z,2.30
2023-05-19T12:08:35.043Z,1.90
2023-05-19T12:13:38.185Z,1.90
2023-05-19T12:18:44.841Z,3.40
2023-05-19T12:23:48.118Z,2.40
2023-05-19T12:28:55.931Z,1.70
2023-05-19T12:33:59.515Z,4.70
2023-05-19T12:39:07.095Z,1.60
2023-05-19T12:44:15.443Z,2.50
2023-05-19T12:49:18.452Z,2.00
2023-05-19T12:54:22.804Z,1.70
2023-05-19T12:59:37.890Z,1.60
2023-05-19T13:04:41.914Z,1.50
2023-05-19T13:09:44.986Z,3.90
2023-05-19T13:14:48.164Z,1.60
2023-05-19T13:19:51.885Z,1.60
2023-05-19T13:24:58.860Z,2.00
2023-05-19T13:30:05.303Z,1.30
2023-05-19T13:40:13.641Z,1.30
2023-05-19T13:45:16.703Z,1.40
2023-05-19T13:50:19.582Z,1.50
2023-05-19T13:55:23.445Z,1.40
2023-05-19T14:00:31.436Z,1.00
2023-05-19T14:05:34.762Z,1.30
2023-05-19T14:10:37.776Z,1.40
2023-05-19T14:15:41.348Z,1.50
2023-05-19T14:20:46.800Z,1.30
2023-05-19T14:25:49.968Z,1.30
2023-05-19T14:30:59.235Z,1.40
2023-05-19T14:36:03.457Z,1.40
2023-05-19T14:41:07.094Z,1.50
2023-05-19T14:46:10.173Z,1.70
2023-05-19T14:51:13.171Z,1.60
2023-05-19T14:56:17.419Z,1.70
2023-05-19T15:01:20.367Z,1.10
2023-05-19T15:06:23.763Z,1.40
2023-05-19T15:11:26.877Z,1.40
2023-05-19T15:16:30.557Z,1.90
2023-05-19T15:21:35.056Z,1.60
2023-05-19T15:26:38.278Z,1.40
2023-05-19T15:31:41.525Z,1.20
2023-05-19T15:36:44.901Z,1.70
2023-05-19T15:41:47.790Z,1.30
2023-05-19T15:46:50.879Z,1.70
2023-05-19T15:51:53.801Z,1.60
2023-05-19T15:56:56.731Z,1.10
2023-05-19T16:01:59.837Z,1.50
2023-05-19T16:07:02.868Z,1.60
2023-05-19T16:12:06.127Z,1.70
2023-05-19T16:17:11.661Z,1.60
2023-05-19T16:22:14.590Z,1.40
2023-05-19T16:27:17.612Z,1.50
2023-05-19T16:32:21.679Z,1.50
2023-05-19T16:37:24.551Z,1.60
2023-05-19T16:42:28.560Z,1.60
2023-05-19T16:47:33.082Z,1.80
2023-05-19T16:52:38.908Z,1.60
2023-05-19T16:57:44.932Z,1.70
2023-05-19T17:02:47.909Z,1.50
2023-05-19T17:07:51.047Z,1.80
2023-05-19T17:12:55.499Z,1.90
2023-05-19T17:17:58.455Z,2.10
2023-05-19T17:23:01.435Z,1.90
2023-05-19T17:28:04.903Z,1.90
2023-05-19T17:33:08.132Z,1.80
2023-05-19T17:38:11.104Z,1.80
2023-05-19T17:43:14.080Z,2.00
2023-05-19T17:48:21.894Z,2.40
2023-05-19T17:53:27.818Z,2.00
2023-05-19T17:58:33.466Z,2.20
2023-05-19T18:03:37.146Z,1.80
2023-05-19T18:08:54.297Z,2.30
2023-05-19T18:13:59.348Z,2.30
2023-05-19T18:19:03.007Z,2.30
2023-05-19T18:24:09.485Z,2.50
2023-05-19T18:29:14.639Z,2.20
2023-05-19T18:34:17.480Z,2.20
2023-05-19T18:39:27.315Z,2.40
2023-05-19T18:44:34.097Z,2.70
2023-05-19T18:49:36.937Z,2.80
2023-05-19T18:54:42.617Z,2.90
2023-05-19T18:59:45.630Z,3.10
2023-05-19T19:04:48.488Z,3.80
2023-05-19T19:09:53.559Z,2.90
2023-05-19T19:14:57.174Z,3.10
2023-05-19T19:20:00.198Z,3.20
2023-05-19T19:25:03.855Z,2.90
2023-05-19T19:30:07.711Z,3.10
2023-05-19T19:35:11.261Z,2.60
2023-05-19T19:40:14.192Z,2.90
2023-05-19T19:45:18.373Z,2.90
2023-05-19T19:50:21.404Z,2.90
2023-05-19T19:55:24.228Z,2.60
2023-05-19T20:00:27.188Z,2.80
2023-05-19T20:05:30.105Z,2.90
2023-05-19T20:10:33.070Z,4.20
2023-05-19T20:15:36.228Z,3.60
2023-05-19T20:20:42.791Z,3.90
2023-05-19T20:25:58.947Z,4.30
2023-05-19T20:31:08.997Z,2.90
2023-05-19T20:36:15.127Z,2.40
2023-05-19T20:41:18.257Z,2.30
2023-05-19T20:46:21.519Z,2.70
2023-05-19T20:51:25.570Z,2.60
2023-05-19T20:56:28.410Z,2.50
2023-05-19T21:01:31.456Z,2.30
2023-05-19T21:06:34.502Z,2.60
2023-05-19T21:11:37.646Z,2.80
2023-05-19T21:16:43.360Z,3.20
2023-05-19T21:21:47.536Z,2.90
2023-05-19T21:26:51.546Z,3.10
2023-05-19T21:31:56.655Z,3.00
2023-05-19T21:36:59.633Z,2.60
2023-05-19T21:42:03.054Z,2.90
2023-05-19T21:47:06.059Z,2.80
2023-05-19T21:52:09.261Z,2.90
2023-05-19T21:57:12.734Z,2.80
2023-05-19T22:02:16.587Z,2.70
2023-05-19T22:07:26.923Z,2.70
2023-05-19T22:12:32.554Z,2.80
2023-05-19T22:17:39.571Z,2.80
2023-05-19T22:22:42.438Z,3.20
2023-05-19T22:27:45.306Z,2.60
2023-05-19T22:32:48.256Z,2.70
2023-05-19T22:37:51.069Z,2.90
2023-05-19T22:42:54.177Z,3.00
2023-05-19T22:47:57.074Z,3.10
2023-05-19T22:52:59.963Z,2.60
2023-05-19T22:58:02.788Z,2.30
2023-05-19T23:03:05.744Z,2.60
2023-05-19T23:08:08.772Z,2.90
2023-05-19T23:13:12.266Z,2.40
2023-05-19T23:18:15.252Z,2.40
2023-05-19T23:23:19.311Z,2.70
2023-05-19T23:28:22.142Z,2.30
2023-05-19T23:33:24.961Z,2.40
2023-05-19T23:38:27.823Z,2.20
2023-05-19T23:43:32.531Z,2.30
2023-05-19T23:48:36.813Z,2.30
2023-05-19T23:53:39.698Z,2.00
2023-05-19T23:58:42.481Z,2.30
